Time;durP1;ratioP1;P1;durP2;ratioP2;P2;SDS_P1;SDS_P2;PMS_P1;PMS_P2;Temp;Humidity;BMP_temperature;BMP_pressure;BME280_temperature;BME280_humidity;BME280_pressure;Samples;Min_cycle;Max_cycle;Signal;HPM_P1;HPM_P2
2023/03/20 00:00:36;;;;;;;10.38;4.00;;;11.60;68.60;;;;;;5057782;28;20036;-65
2023/03/20 00:03:01;;;;;;;9.05;3.38;;;11.60;69.10;;;;;;5056994;28;20113;-64
2023/03/20 00:05:28;;;;;;;4.90;3.05;;;11.60;68.50;;;;;;5063379;28;20049;-64
2023/03/20 00:07:56;;;;;;;3.97;2.88;;;11.60;68.60;;;;;;5062740;28;20148;-64
2023/03/20 00:10:27;;;;;;;6.80;3.60;;;11.50;68.50;;;;;;5065254;28;20028;-64
2023/03/20 00:12:52;;;;;;;4.80;3.35;;;11.50;68.50;;;;;;5056474;28;20021;-64
2023/03/20 00:15:26;;;;;;;5.15;2.80;;;11.50;68.40;;;;;;5060785;28;20048;-63
2023/03/20 00:17:52;;;;;;;7.43;2.95;;;11.50;68.90;;;;;;5059650;28;20176;-64
2023/03/20 00:20:19;;;;;;;7.25;3.60;;;11.40;68.40;;;;;;5066570;28;20399;-64
2023/03/20 00:22:45;;;;;;;8.88;3.25;;;11.40;68.50;;;;;;5049338;28;20025;-64
2023/03/20 00:25:16;;;;;;;4.03;2.88;;;11.40;68.60;;;;;;5058127;28;20039;-65
2023/03/20 00:27:43;;;;;;;6.18;3.25;;;11.30;68.80;;;;;;5066786;28;20033;-65
2023/03/20 00:30:25;;;;;;;8.70;3.78;;;11.30;68.70;;;;;;5064320;28;20102;-64
2023/03/20 00:32:51;;;;;;;8.10;3.92;;;11.30;69.60;;;;;;5057100;28;20116;-65
2023/03/20 00:35:21;;;;;;;9.18;4.35;;;11.30;68.90;;;;;;5058309;28;20128;-65
2023/03/20 00:37:47;;;;;;;7.50;4.35;;;11.30;69.00;;;;;;5050003;28;20036;-66
2023/03/20 00:40:13;;;;;;;13.30;5.00;;;11.20;68.90;;;;;;5060379;28;20030;-65
2023/03/20 00:42:40;;;;;;;12.70;5.50;;;11.20;69.10;;;;;;5054031;28;21337;-65
2023/03/20 00:45:11;;;;;;;9.88;4.00;;;11.20;69.10;;;;;;5058162;28;20036;-65
2023/03/20 00:47:40;;;;;;;4.47;2.90;;;11.20;69.20;;;;;;5062672;28;20047;-65
2023/03/20 00:50:19;;;;;;;4.32;2.30;;;11.20;69.20;;;;;;5063381;28;20024;-65
2023/03/20 00:52:45;;;;;;;4.07;2.70;;;11.20;69.00;;;;;;5052581;28;20056;-64
2023/03/20 00:55:11;;;;;;;4.32;2.47;;;11.20;68.80;;;;;;5062059;28;20044;-64
2023/03/20 00:57:48;;;;;;;6.00;2.60;;;11.20;68.90;;;;;;5063331;28;20032;-65
2023/03/20 01:00:22;;;;;;;4.43;2.42;;;11.20;69.30;;;;;;5051995;28;20029;-64
2023/03/20 01:02:48;;;;;;;4.07;2.63;;;11.10;69.40;;;;;;5064341;28;20088;-64
2023/03/20 01:05:14;;;;;;;4.35;2.67;;;11.10;69.10;;;;;;5056078;28;20037;-63
2023/03/20 01:07:40;;;;;;;5.32;2.53;;;11.10;69.20;;;;;;5062807;28;20041;-64
2023/03/20 01:10:06;;;;;;;4.28;2.58;;;11.10;69.20;;;;;;5058500;28;20162;-65
2023/03/20 01:12:32;;;;;;;5.35;2.95;;;11.10;69.30;;;;;;5063775;28;20036;-65
2023/03/20 01:14:58;;;;;;;8.70;3.47;;;11.10;69.40;;;;;;5054981;28;20025;-65
2023/03/20 01:17:26;;;;;;;5.60;3.08;;;11.10;69.40;;;;;;5058336;28;20376;-64
2023/03/20 01:19:52;;;;;;;4.68;2.92;;;11.10;69.50;;;;;;5051247;28;20470;-64
2023/03/20 01:22:18;;;;;;;5.03;2.97;;;11.10;69.40;;;;;;5059143;28;20044;-65
2023/03/20 01:24:44;;;;;;;5.32;2.65;;;11.10;69.50;;;;;;5061868;28;20092;-65
2023/03/20 01:27:16;;;;;;;3.22;2.38;;;11.10;69.40;;;;;;5061614;28;20032;-64
2023/03/20 01:29:42;;;;;;;2.90;2.38;;;11.10;69.50;;;;;;5062919;28;20076;-65
2023/03/20 01:32:12;;;;;;;4.50;2.17;;;11.10;69.30;;;;;;5055855;28;20032;-64
2023/03/20 01:34:38;;;;;;;5.45;1.85;;;11.00;69.30;;;;;;5090704;28;20103;-63
2023/03/20 01:37:10;;;;;;;3.50;2.05;;;11.00;69.00;;;;;;5058689;28;20028;-65
2023/03/20 01:39:36;;;;;;;2.95;1.65;;;11.00;69.00;;;;;;5004001;28;20036;-65
2023/03/20 01:42:04;;;;;;;5.72;1.85;;;11.00;68.90;;;;;;5066396;28;20017;-64
2023/03/20 01:44:33;;;;;;;6.57;2.00;;;11.00;69.00;;;;;;5064834;28;20033;-65
2023/03/20 01:47:00;;;;;;;3.10;1.88;;;10.90;69.10;;;;;;5064461;28;20036;-66
2023/03/20 01:49:27;;;;;;;8.52;2.20;;;10.90;69.20;;;;;;5065781;28;20484;-64
2023/03/20 01:51:55;;;;;;;3.00;2.00;;;10.90;69.20;;;;;;5071546;28;20044;-65
2023/03/20 01:54:29;;;;;;;5.13;2.20;;;10.90;69.20;;;;;;5053441;28;20059;-64
2023/03/20 01:57:21;;;;;;;4.97;2.13;;;10.80;69.30;;;;;;5058340;28;20033;-65
2023/03/20 01:59:52;;;;;;;2.95;2.03;;;10.80;69.60;;;;;;5060117;28;20025;-64
2023/03/20 02:02:25;;;;;;;3.72;2.35;;;10.80;69.40;;;;;;5056265;28;20380;-64
2023/03/20 02:04:55;;;;;;;4.47;2.55;;;10.80;69.60;;;;;;5061998;28;20033;-64
2023/03/20 02:07:22;;;;;;;8.30;2.65;;;10.70;69.40;;;;;;5063560;28;20132;-64
2023/03/20 02:09:49;;;;;;;3.92;2.80;;;10.70;69.40;;;;;;5060746;28;20064;-64
2023/03/20 02:12:16;;;;;;;4.45;2.67;;;10.70;69.40;;;;;;5067496;28;20020;-65
2023/03/20 02:14:44;;;;;;;3.92;2.80;;;10.60;69.50;;;;;;5054898;28;20051;-64
2023/03/20 02:17:10;;;;;;;3.60;2.15;;;10.60;69.50;;;;;;5062589;28;20095;-65
2023/03/20 02:20:11;;;;;;;6.78;2.80;;;10.60;69.60;;;;;;5066400;28;20524;-65
2023/03/20 02:23:22;;;;;;;3.38;2.22;;;10.50;70.10;;;;;;5064543;28;20370;-64
2023/03/20 02:26:17;;;;;;;3.25;2.28;;;10.50;70.20;;;;;;5045691;28;20057;-65
2023/03/20 02:29:05;;;;;;;2.95;2.30;;;10.50;69.60;;;;;;5058068;28;20032;-64
2023/03/20 02:31:49;;;;;;;3.65;2.10;;;10.50;69.40;;;;;;5064074;28;20025;-65
2023/03/20 02:34:37;;;;;;;3.03;2.30;;;10.40;69.20;;;;;;5060021;28;20051;-64
2023/03/20 02:37:03;;;;;;;2.75;2.08;;;10.40;69.50;;;;;;5056368;28;20021;-64
2023/03/20 02:40:42;;;;;;;3.25;1.98;;;10.40;69.10;;;;;;5059170;28;20029;-64
2023/03/20 02:43:14;;;;;;;2.22;1.90;;;10.30;70.30;;;;;;4946129;29;20099;-67
2023/03/20 02:46:11;;;;;;;4.00;2.33;;;10.30;69.20;;;;;;4953451;28;20097;-64
2023/03/20 02:48:59;;;;;;;2.45;2.10;;;10.30;70.10;;;;;;4941426;29;20055;-64
2023/03/20 02:51:47;;;;;;;4.30;2.25;;;10.20;70.20;;;;;;4942222;29;20039;-64
2023/03/20 02:54:28;;;;;;;4.40;2.60;;;10.20;70.70;;;;;;4944442;29;20040;-65
2023/03/20 02:57:08;;;;;;;3.50;2.80;;;10.20;70.70;;;;;;4938610;29;20062;-65
2023/03/20 02:59:39;;;;;;;4.50;2.47;;;10.20;71.10;;;;;;4946742;29;20042;-65
2023/03/20 03:02:15;;;;;;;3.40;2.67;;;10.20;70.70;;;;;;4943878;29;20505;-65
2023/03/20 03:04:51;;;;;;;4.63;2.60;;;10.20;70.90;;;;;;4944172;29;20167;-65
2023/03/20 03:07:21;;;;;;;5.82;2.90;;;10.20;71.00;;;;;;4945773;29;20047;-65
2023/03/20 03:10:12;;;;;;;4.65;3.30;;;10.20;71.00;;;;;;4946080;29;20110;-65
2023/03/20 03:12:42;;;;;;;6.55;3.05;;;10.20;71.30;;;;;;4934828;29;20042;-64
2023/03/20 03:15:37;;;;;;;3.97;3.00;;;10.30;71.00;;;;;;5040188;28;20029;-66
2023/03/20 03:18:05;;;;;;;6.55;2.78;;;10.30;71.90;;;;;;5058544;28;20028;-64
2023/03/20 03:20:37;;;;;;;3.58;2.42;;;10.30;70.90;;;;;;5061546;28;20036;-65
2023/03/20 03:23:04;;;;;;;3.60;2.78;;;10.30;71.20;;;;;;5066821;28;20024;-64
2023/03/20 03:25:38;;;;;;;4.93;3.28;;;10.40;71.10;;;;;;5053723;28;20033;-64
2023/03/20 03:28:37;;;;;;;4.63;3.03;;;10.40;71.30;;;;;;5060085;28;20078;-65
2023/03/20 03:31:17;;;;;;;3.35;2.60;;;10.40;72.00;;;;;;5056775;28;20025;-64
2023/03/20 03:33:49;;;;;;;3.38;2.63;;;10.50;71.10;;;;;;5060330;28;20045;-64
2023/03/20 03:36:33;;;;;;;4.25;2.92;;;10.50;71.20;;;;;;5063231;28;20082;-65
2023/03/20 03:39:26;;;;;;;5.30;3.05;;;10.50;71.60;;;;;;5069416;28;20176;-65
2023/03/20 03:42:04;;;;;;;7.45;3.53;;;10.50;71.50;;;;;;5056279;28;20037;-64
2023/03/20 03:44:56;;;;;;;3.67;2.95;;;10.50;70.80;;;;;;5056181;28;20017;-64
2023/03/20 03:47:27;;;;;;;6.10;3.08;;;10.50;70.90;;;;;;5064619;28;20037;-64
2023/03/20 03:50:02;;;;;;;4.90;3.25;;;10.50;70.50;;;;;;5059596;28;20028;-66
2023/03/20 03:52:31;;;;;;;4.65;3.47;;;10.50;70.70;;;;;;5065274;28;20048;-66
2023/03/20 03:55:05;;;;;;;4.50;3.85;;;10.50;70.60;;;;;;5068925;28;20021;-63
2023/03/20 03:57:36;;;;;;;4.20;3.80;;;10.50;71.10;;;;;;5059834;28;20399;-64
2023/03/20 04:00:05;;;;;;;7.28;4.30;;;10.50;71.10;;;;;;5060552;28;20088;-65
2023/03/20 04:02:32;;;;;;;5.82;4.60;;;10.50;70.90;;;;;;5055012;28;20334;-64
2023/03/20 04:05:00;;;;;;;4.82;4.28;;;10.60;71.20;;;;;;5058142;28;20071;-65
2023/03/20 04:07:28;;;;;;;5.28;4.10;;;10.60;71.20;;;;;;5059555;28;20042;-65
2023/03/20 04:09:54;;;;;;;5.40;4.00;;;10.60;71.00;;;;;;5065684;28;20024;-65
2023/03/20 04:12:48;;;;;;;5.43;4.90;;;10.60;71.10;;;;;;5057464;28;20033;-64
2023/03/20 04:15:15;;;;;;;6.00;5.35;;;10.70;72.20;;;;;;5048247;28;20037;-63
2023/03/20 04:17:41;;;;;;;5.65;4.60;;;10.70;71.10;;;;;;5057722;28;20063;-65
2023/03/20 04:20:11;;;;;;;5.60;4.35;;;10.80;71.10;;;;;;5059883;28;20025;-65
2023/03/20 04:22:36;;;;;;;4.20;3.80;;;10.80;71.10;;;;;;5049948;28;20032;-65
2023/03/20 04:25:04;;;;;;;5.45;4.35;;;10.80;71.00;;;;;;5050781;28;20381;-64
2023/03/20 04:27:30;;;;;;;6.32;4.30;;;10.90;71.00;;;;;;5056308;28;20029;-64
2023/03/20 04:29:56;;;;;;;5.18;4.43;;;10.90;70.90;;;;;;5062241;28;20055;-65
2023/03/20 04:32:22;;;;;;;5.70;4.38;;;10.90;70.90;;;;;;5062759;28;20029;-64
2023/03/20 04:34:48;;;;;;;7.47;4.47;;;11.00;71.00;;;;;;5059179;28;20124;-63
2023/03/20 04:37:14;;;;;;;5.53;4.07;;;11.00;71.00;;;;;;5062092;28;20575;-66
2023/03/20 04:39:41;;;;;;;4.65;4.10;;;11.00;70.90;;;;;;4973794;28;20092;-64
2023/03/20 04:42:07;;;;;;;4.82;4.18;;;11.00;70.90;;;;;;5057648;28;20035;-64
2023/03/20 04:44:33;;;;;;;5.20;4.07;;;11.00;70.80;;;;;;5054539;28;20031;-63
2023/03/20 04:46:59;;;;;;;4.75;4.30;;;11.00;70.70;;;;;;5057948;28;20051;-64
2023/03/20 04:49:25;;;;;;;7.22;3.90;;;11.10;70.70;;;;;;5068238;28;20025;-64
2023/03/20 04:51:51;;;;;;;5.35;4.32;;;11.10;70.70;;;;;;5064348;28;20379;-65
2023/03/20 04:54:17;;;;;;;5.00;3.90;;;11.10;70.70;;;;;;5064006;28;20029;-65
2023/03/20 04:56:43;;;;;;;4.85;4.25;;;11.10;70.70;;;;;;5059149;28;20021;-65
2023/03/20 04:59:09;;;;;;;4.82;4.07;;;11.10;70.70;;;;;;5061978;28;20104;-65
2023/03/20 05:01:35;;;;;;;4.47;3.78;;;11.10;70.70;;;;;;5061812;28;20722;-65
2023/03/20 05:04:01;;;;;;;5.65;3.92;;;11.10;70.60;;;;;;5068294;28;20056;-66
2023/03/20 05:06:27;;;;;;;4.03;3.35;;;11.10;70.50;;;;;;5059971;28;20033;-65
2023/03/20 05:08:53;;;;;;;3.45;3.15;;;11.10;71.10;;;;;;5059026;28;20044;-65
2023/03/20 05:11:19;;;;;;;4.88;3.83;;;11.10;70.30;;;;;;5060534;28;20025;-65
2023/03/20 05:13:45;;;;;;;4.32;3.28;;;11.10;70.30;;;;;;5060978;28;20029;-65
2023/03/20 05:16:10;;;;;;;4.28;3.63;;;11.10;70.30;;;;;;5060042;28;20504;-64
2023/03/20 05:18:36;;;;;;;3.65;3.35;;;11.20;71.00;;;;;;5066696;28;20035;-65
2023/03/20 05:21:03;;;;;;;4.32;3.60;;;11.20;70.30;;;;;;5062604;28;20080;-65
2023/03/20 05:23:29;;;;;;;6.82;3.65;;;11.20;70.40;;;;;;5058056;28;20017;-64
2023/03/20 05:25:55;;;;;;;3.88;3.47;;;11.20;70.40;;;;;;5060372;28;20034;-64
2023/03/20 05:28:21;;;;;;;6.10;3.70;;;11.20;70.40;;;;;;5055970;28;20516;-64
2023/03/20 05:30:47;;;;;;;5.10;4.40;;;11.10;70.40;;;;;;5058038;28;20064;-65
2023/03/20 05:33:12;;;;;;;6.45;4.55;;;11.10;70.50;;;;;;5066822;28;20028;-65
2023/03/20 05:35:38;;;;;;;5.00;4.03;;;11.20;70.60;;;;;;5062496;28;20044;-65
2023/03/20 05:38:04;;;;;;;5.30;3.85;;;11.20;70.60;;;;;;5050540;28;20189;-65
2023/03/20 05:40:29;;;;;;;4.30;3.50;;;11.20;70.60;;;;;;5060237;28;20029;-64
2023/03/20 05:42:55;;;;;;;4.00;3.60;;;11.20;70.60;;;;;;5062962;28;20044;-64
2023/03/20 05:45:21;;;;;;;3.58;3.10;;;11.20;70.60;;;;;;5065268;28;20116;-65
2023/03/20 05:47:46;;;;;;;5.82;3.60;;;11.20;70.60;;;;;;5061347;28;20026;-65
2023/03/20 05:50:12;;;;;;;5.05;3.65;;;11.20;70.60;;;;;;5053594;28;20061;-65
2023/03/20 05:52:38;;;;;;;7.45;3.50;;;11.20;70.60;;;;;;5058003;28;20045;-64
2023/03/20 05:55:04;;;;;;;3.60;2.92;;;11.20;70.50;;;;;;5062560;28;20070;-64
2023/03/20 05:57:30;;;;;;;4.13;2.80;;;11.20;70.40;;;;;;5060981;28;20096;-64
2023/03/20 05:59:56;;;;;;;4.40;2.55;;;11.20;70.50;;;;;;5058779;28;20068;-66
2023/03/20 06:02:22;;;;;;;2.60;2.20;;;11.20;70.40;;;;;;5060701;28;20059;-65
2023/03/20 06:04:47;;;;;;;4.47;2.28;;;11.20;70.40;;;;;;5058079;28;20060;-65
2023/03/20 06:07:13;;;;;;;2.78;2.42;;;11.20;70.40;;;;;;5061708;28;20526;-65
2023/03/20 06:09:39;;;;;;;3.28;2.20;;;11.20;70.50;;;;;;5062117;28;20032;-65
2023/03/20 06:12:05;;;;;;;6.70;2.50;;;11.20;70.50;;;;;;5058736;28;20041;-65
2023/03/20 06:14:31;;;;;;;3.20;2.90;;;11.30;70.60;;;;;;5065997;28;20025;-64
2023/03/20 06:16:56;;;;;;;3.22;2.55;;;11.30;70.60;;;;;;5054153;28;20023;-64
2023/03/20 06:19:22;;;;;;;8.48;3.08;;;11.30;70.60;;;;;;5058338;28;20049;-64
2023/03/20 06:21:49;;;;;;;5.93;3.33;;;11.30;70.60;;;;;;5064220;28;20507;-64
2023/03/20 06:24:15;;;;;;;6.32;3.63;;;11.40;70.70;;;;;;5060340;28;20021;-65
2023/03/20 06:26:41;;;;;;;6.05;3.65;;;11.40;70.60;;;;;;5068230;28;20061;-64
2023/03/20 06:29:06;;;;;;;5.32;3.47;;;11.40;70.60;;;;;;5067949;28;20031;-65
2023/03/20 06:31:32;;;;;;;4.93;3.22;;;11.40;70.50;;;;;;5068399;28;20028;-64
2023/03/20 06:33:58;;;;;;;5.38;3.30;;;11.50;70.50;;;;;;5064682;28;20393;-64
2023/03/20 06:36:24;;;;;;;10.88;3.20;;;11.50;70.40;;;;;;5058158;28;20029;-65
2023/03/20 06:38:51;;;;;;;8.38;2.60;;;11.50;70.30;;;;;;5061551;28;20045;-64
2023/03/20 06:41:16;;;;;;;2.60;2.00;;;11.60;70.30;;;;;;5061271;28;20078;-64
2023/03/20 06:43:43;;;;;;;5.65;2.30;;;11.60;70.30;;;;;;5060788;28;20032;-64
2023/03/20 06:46:08;;;;;;;6.43;2.72;;;11.60;70.30;;;;;;5054358;28;20071;-64
2023/03/20 06:48:35;;;;;;;6.50;2.47;;;11.70;70.60;;;;;;5078473;28;20107;-64
2023/03/20 06:51:00;;;;;;;6.40;2.88;;;11.70;70.20;;;;;;5071437;28;20491;-65
2023/03/20 06:53:26;;;;;;;3.95;2.55;;;11.80;70.20;;;;;;5070383;28;20035;-65
2023/03/20 06:55:53;;;;;;;2.65;2.42;;;11.80;70.20;;;;;;5076145;28;20029;-64
2023/03/20 06:58:19;;;;;;;2.50;1.92;;;11.80;70.20;;;;;;5074464;28;20096;-64
2023/03/20 07:00:45;;;;;;;2.25;2.05;;;11.80;70.00;;;;;;5063861;28;20028;-65
2023/03/20 07:03:11;;;;;;;2.03;1.83;;;11.90;70.00;;;;;;5068768;28;20110;-63
2023/03/20 07:05:37;;;;;;;3.25;1.90;;;11.90;70.00;;;;;;5077286;28;20036;-64
2023/03/20 07:08:04;;;;;;;3.58;2.40;;;12.00;70.10;;;;;;5060941;28;20078;-64
2023/03/20 07:10:30;;;;;;;3.30;2.30;;;12.00;70.10;;;;;;5058326;28;20093;-63
2023/03/20 07:12:55;;;;;;;2.63;1.80;;;12.10;70.10;;;;;;5059352;28;20048;-63
2023/03/20 07:15:21;;;;;;;1.85;1.63;;;12.10;70.20;;;;;;5069733;28;20116;-63
2023/03/20 07:17:46;;;;;;;4.20;2.00;;;12.20;70.20;;;;;;5059101;28;20036;-63
2023/03/20 07:20:13;;;;;;;2.63;2.10;;;12.20;70.10;;;;;;5061679;28;20028;-64
2023/03/20 07:22:40;;;;;;;5.43;1.95;;;12.30;70.20;;;;;;5057738;28;20027;-63
2023/03/20 07:25:08;;;;;;;1.98;1.20;;;12.30;69.90;;;;;;5059721;28;20067;-63
2023/03/20 07:27:34;;;;;;;2.00;1.55;;;12.40;69.70;;;;;;5059472;28;20035;-64
2023/03/20 07:29:59;;;;;;;3.30;1.85;;;12.50;69.50;;;;;;5059751;28;20045;-64
2023/03/20 07:32:25;;;;;;;1.42;1.30;;;12.60;69.30;;;;;;5064895;28;20048;-64
2023/03/20 07:34:51;;;;;;;1.35;1.23;;;12.60;69.20;;;;;;5058365;28;20139;-64
2023/03/20 07:37:17;;;;;;;3.67;1.30;;;12.70;69.00;;;;;;5055894;28;20081;-64
2023/03/20 07:39:43;;;;;;;1.77;1.40;;;12.80;68.70;;;;;;5068927;28;20032;-64
2023/03/20 07:42:08;;;;;;;1.30;1.20;;;12.80;68.30;;;;;;5061926;28;20115;-65
2023/03/20 07:44:34;;;;;;;0.98;0.95;;;12.80;68.10;;;;;;5065745;28;20052;-64
2023/03/20 07:47:00;;;;;;;2.30;1.00;;;12.90;67.90;;;;;;5064275;28;20041;-64
2023/03/20 07:49:25;;;;;;;0.93;0.90;;;13.00;67.60;;;;;;5068807;28;20123;-64
2023/03/20 07:51:53;;;;;;;2.95;0.80;;;13.00;67.40;;;;;;5056691;28;20029;-65
2023/03/20 07:54:19;;;;;;;2.10;0.88;;;13.00;67.30;;;;;;5063119;28;20021;-65
2023/03/20 07:56:45;;;;;;;1.15;0.70;;;13.10;67.10;;;;;;5063928;28;20098;-64
2023/03/20 07:59:12;;;;;;;0.80;0.70;;;13.20;66.90;;;;;;5057637;28;20028;-64
2023/03/20 08:01:38;;;;;;;1.13;0.70;;;13.30;66.90;;;;;;5059202;28;20076;-62
2023/03/20 08:04:03;;;;;;;3.83;0.70;;;13.40;66.70;;;;;;5061044;28;20029;-63
2023/03/20 08:06:30;;;;;;;1.05;0.90;;;13.50;66.50;;;;;;5061666;28;20047;-64
2023/03/20 08:08:55;;;;;;;0.90;0.70;;;13.60;66.20;;;;;;5065747;28;20024;-65
2023/03/20 08:11:21;;;;;;;0.95;0.70;;;13.80;66.30;;;;;;5052529;28;20021;-65
2023/03/20 08:13:46;;;;;;;1.02;0.60;;;13.90;66.10;;;;;;5054962;28;20021;-64
2023/03/20 08:16:12;;;;;;;4.30;1.70;;;14.10;65.60;;;;;;5060067;28;20054;-64
2023/03/20 08:18:38;;;;;;;1.40;0.80;;;14.30;64.20;;;;;;5048359;28;20483;-64
2023/03/20 08:21:03;;;;;;;1.05;0.50;;;14.40;63.00;;;;;;5057544;28;20057;-64
2023/03/20 08:23:29;;;;;;;1.13;0.80;;;14.40;62.80;;;;;;5065551;28;20024;-64
2023/03/20 08:25:55;;;;;;;0.60;0.60;;;14.40;62.70;;;;;;5064575;28;20113;-64
2023/03/20 08:28:22;;;;;;;0.95;0.63;;;14.40;62.50;;;;;;5065422;28;20020;-63
2023/03/20 08:30:48;;;;;;;1.27;0.80;;;14.50;62.40;;;;;;5058113;28;20056;-64
2023/03/20 08:33:15;;;;;;;1.02;0.80;;;14.60;61.90;;;;;;5051916;28;20020;-64
2023/03/20 08:35:42;;;;;;;0.95;0.80;;;14.60;61.50;;;;;;5058031;28;20457;-63
2023/03/20 08:38:11;;;;;;;9.63;3.45;;;14.60;61.00;;;;;;5060995;28;20345;-64
2023/03/20 08:40:40;;;;;;;3.90;1.60;;;14.70;60.80;;;;;;4964239;28;20074;-64
2023/03/20 08:43:06;;;;;;;5.28;1.60;;;14.70;60.70;;;;;;5060531;28;20032;-63
2023/03/20 08:45:32;;;;;;;2.20;1.00;;;14.70;60.90;;;;;;5057120;28;20037;-64
2023/03/20 08:47:57;;;;;;;6.35;2.55;;;14.70;60.70;;;;;;5058078;28;20024;-64
2023/03/20 08:50:23;;;;;;;7.47;2.47;;;14.80;60.50;;;;;;5052276;28;20058;-64
2023/03/20 08:52:49;;;;;;;1.75;1.23;;;14.80;60.30;;;;;;5063171;28;20527;-63
2023/03/20 08:55:15;;;;;;;6.35;2.10;;;14.80;59.40;;;;;;5060955;28;20112;-64
2023/03/20 08:57:41;;;;;;;5.25;1.67;;;14.80;59.00;;;;;;5066068;28;20093;-64
2023/03/20 09:00:11;;;;;;;5.45;1.73;;;14.70;59.50;;;;;;5062724;28;20309;-64
2023/03/20 09:02:37;;;;;;;3.83;1.30;;;14.70;59.10;;;;;;5050281;28;20064;-64
2023/03/20 09:05:03;;;;;;;2.15;1.08;;;14.70;58.80;;;;;;5063045;28;20032;-64
2023/03/20 09:07:29;;;;;;;1.67;0.73;;;14.60;58.60;;;;;;5058723;28;20048;-64
2023/03/20 09:09:55;;;;;;;0.82;0.63;;;14.60;59.00;;;;;;5063316;28;20036;-64
2023/03/20 09:12:20;;;;;;;0.80;0.70;;;14.60;59.10;;;;;;5059038;28;20029;-64
2023/03/20 09:14:46;;;;;;;0.60;0.52;;;14.50;59.00;;;;;;5065364;28;20032;-64
2023/03/20 09:17:11;;;;;;;1.65;0.70;;;14.50;59.20;;;;;;5062891;28;20092;-64
2023/03/20 09:19:43;;;;;;;0.82;0.60;;;14.50;59.20;;;;;;5057132;28;20033;-65
2023/03/20 09:22:13;;;;;;;1.27;1.10;;;14.50;58.80;;;;;;5055560;28;20028;-64
2023/03/20 09:24:39;;;;;;;6.28;2.65;;;14.50;58.60;;;;;;5057556;28;20033;-64
2023/03/20 09:27:05;;;;;;;4.78;2.25;;;14.40;58.30;;;;;;5059683;28;20036;-64
2023/03/20 09:29:31;;;;;;;1.58;0.90;;;14.40;58.40;;;;;;5065321;28;20028;-64
2023/03/20 09:31:57;;;;;;;2.88;1.20;;;14.30;58.70;;;;;;5067611;28;20392;-64
2023/03/20 09:34:23;;;;;;;1.85;1.00;;;14.30;58.60;;;;;;5063079;28;20053;-64
2023/03/20 09:36:49;;;;;;;2.40;1.02;;;14.30;58.40;;;;;;5053624;28;20028;-64
2023/03/20 09:39:15;;;;;;;0.80;0.80;;;14.30;58.60;;;;;;5060700;28;20364;-64
2023/03/20 09:41:47;;;;;;;2.22;1.40;;;14.30;58.50;;;;;;5065586;28;20025;-63
2023/03/20 09:44:12;;;;;;;2.15;1.20;;;14.30;58.50;;;;;;5065376;28;20047;-64
2023/03/20 09:47:07;;;;;;;2.13;1.58;;;14.30;58.20;;;;;;5061959;28;20059;-63
2023/03/20 09:49:48;;;;;;;3.58;2.22;;;14.30;58.00;;;;;;5059894;28;20436;-64
2023/03/20 09:52:36;;;;;;;1.20;1.10;;;14.30;58.10;;;;;;5058940;28;20041;-64
2023/03/20 09:55:06;;;;;;;3.75;2.38;;;14.30;57.50;;;;;;5054270;28;20018;-64
2023/03/20 09:57:41;;;;;;;3.00;1.85;;;14.30;58.10;;;;;;5057736;28;20037;-63
2023/03/20 10:00:15;;;;;;;4.15;1.40;;;14.30;58.20;;;;;;5063910;28;20434;-64
2023/03/20 10:03:05;;;;;;;3.22;1.80;;;14.20;58.20;;;;;;5058830;28;20021;-64
2023/03/20 10:06:04;;;;;;;1.10;1.00;;;14.20;57.60;;;;;;5060442;28;20088;-63
2023/03/20 10:08:35;;;;;;;0.85;0.70;;;14.20;58.20;;;;;;5058529;28;20083;-64
2023/03/20 10:11:23;;;;;;;0.63;0.63;;;14.20;58.60;;;;;;5056186;28;20029;-63
2023/03/20 10:14:17;;;;;;;1.90;1.20;;;14.20;58.20;;;;;;5060485;28;20020;-64
2023/03/20 10:17:14;;;;;;;2.00;0.73;;;14.20;58.00;;;;;;5066987;28;20024;-64
2023/03/20 10:20:18;;;;;;;0.68;0.68;;;14.30;58.30;;;;;;5056583;28;20455;-64
2023/03/20 10:22:54;;;;;;;7.10;1.30;;;14.30;58.50;;;;;;5041213;28;20072;-63
2023/03/20 10:25:31;;;;;;;2.08;1.05;;;14.40;59.00;;;;;;5054290;28;20041;-63
2023/03/20 10:27:58;;;;;;;1.42;1.00;;;14.40;59.70;;;;;;5058584;28;20024;-63
2023/03/20 10:30:56;;;;;;;2.25;1.00;;;14.50;59.30;;;;;;5063609;28;20029;-63
2023/03/20 10:34:03;;;;;;;2.13;0.90;;;14.50;59.00;;;;;;5065065;28;20200;-63
2023/03/20 10:36:37;;;;;;;2.55;1.00;;;14.50;59.00;;;;;;5060559;28;20035;-63
2023/03/20 10:39:34;;;;;;;0.93;0.88;;;14.60;59.00;;;;;;5053267;28;20085;-63
2023/03/20 10:42:05;;;;;;;2.25;1.20;;;14.60;58.80;;;;;;5042176;28;20048;-63
2023/03/20 10:44:45;;;;;;;1.00;0.90;;;14.60;59.20;;;;;;5054333;28;20097;-63
2023/03/20 10:47:15;;;;;;;1.85;1.08;;;14.70;58.80;;;;;;5061099;28;20488;-62
2023/03/20 10:49:49;;;;;;;3.25;1.00;;;14.80;58.70;;;;;;5057357;28;20037;-63
2023/03/20 10:52:37;;;;;;;1.10;0.70;;;14.80;58.30;;;;;;5055407;28;20032;-63
2023/03/20 10:55:11;;;;;;;0.80;0.80;;;14.90;58.10;;;;;;5062215;28;20032;-62
2023/03/20 10:57:41;;;;;;;2.40;1.02;;;15.00;58.20;;;;;;5064003;28;20022;-64
2023/03/20 11:00:18;;;;;;;3.13;0.70;;;15.10;58.40;;;;;;5054111;28;20089;-64
2023/03/20 11:02:44;;;;;;;1.10;0.60;;;15.10;58.20;;;;;;5056425;28;20041;-63
2023/03/20 11:05:22;;;;;;;1.10;0.60;;;15.20;58.10;;;;;;5062554;28;20028;-63
2023/03/20 11:08:00;;;;;;;0.77;0.73;;;15.30;57.70;;;;;;5055811;28;20029;-63
2023/03/20 11:10:27;;;;;;;0.75;0.70;;;15.30;56.70;;;;;;5059764;28;20481;-65
2023/03/20 11:12:52;;;;;;;0.90;0.77;;;15.30;57.20;;;;;;5061295;28;20127;-64
2023/03/20 11:15:22;;;;;;;3.55;0.85;;;15.30;57.30;;;;;;5055242;28;20080;-64
2023/03/20 11:18:02;;;;;;;3.47;0.70;;;15.30;57.10;;;;;;5048544;28;20048;-64
2023/03/20 11:20:38;;;;;;;2.45;0.70;;;15.30;57.00;;;;;;5058929;28;20025;-63
2023/03/20 11:23:05;;;;;;;2.85;0.73;;;15.30;56.70;;;;;;5056532;28;21237;-64
2023/03/20 11:25:38;;;;;;;2.50;0.90;;;15.40;56.90;;;;;;5061466;28;20030;-64
2023/03/20 11:28:28;;;;;;;0.75;0.65;;;15.50;56.40;;;;;;5064477;28;20032;-63
2023/03/20 11:31:01;;;;;;;4.65;0.70;;;15.50;56.60;;;;;;5060009;28;20029;-63
2023/03/20 11:33:28;;;;;;;2.88;0.60;;;15.60;56.10;;;;;;5056624;28;20052;-63
2023/03/20 11:35:56;;;;;;;0.50;0.50;;;15.70;56.70;;;;;;5061247;28;20024;-62
2023/03/20 11:38:23;;;;;;;3.03;0.45;;;15.70;56.00;;;;;;5056297;28;20024;-62
2023/03/20 11:40:53;;;;;;;0.98;0.57;;;15.80;55.90;;;;;;5047541;28;20024;-63
2023/03/20 11:43:21;;;;;;;0.45;0.45;;;15.80;55.80;;;;;;5061145;28;20035;-63
2023/03/20 11:45:53;;;;;;;1.33;0.70;;;15.80;55.60;;;;;;5060435;28;20064;-63
2023/03/20 11:48:22;;;;;;;1.00;0.47;;;15.80;55.60;;;;;;5063371;28;20096;-63
2023/03/20 11:50:55;;;;;;;2.42;0.50;;;15.80;55.50;;;;;;5064575;28;20033;-63
2023/03/20 11:53:30;;;;;;;0.50;0.50;;;15.80;54.90;;;;;;5069462;28;20024;-63
2023/03/20 11:56:07;;;;;;;0.60;0.45;;;15.80;55.30;;;;;;5058238;28;20028;-63
2023/03/20 11:58:36;;;;;;;0.95;0.50;;;15.80;54.90;;;;;;5067592;28;20587;-63
2023/03/20 12:01:03;;;;;;;0.50;0.50;;;15.70;54.80;;;;;;5061355;28;20042;-62
2023/03/20 12:03:43;;;;;;;0.65;0.55;;;15.70;55.00;;;;;;5058163;28;20027;-63
2023/03/20 12:06:26;;;;;;;1.13;0.63;;;15.60;54.70;;;;;;5053925;28;20029;-63
2023/03/20 12:09:03;;;;;;;3.58;0.73;;;15.60;54.80;;;;;;5059165;28;20040;-63
2023/03/20 12:11:47;;;;;;;0.55;0.52;;;15.60;55.00;;;;;;5060920;28;20024;-63
2023/03/20 12:14:45;;;;;;;1.00;0.70;;;15.60;55.30;;;;;;5055472;28;20131;-63
2023/03/20 12:17:34;;;;;;;2.40;0.50;;;15.70;54.40;;;;;;5059705;28;20244;-63
2023/03/20 12:20:37;;;;;;;0.52;0.50;;;15.70;55.00;;;;;;5054564;28;20020;-63
2023/03/20 12:23:46;;;;;;;5.45;0.80;;;15.70;54.40;;;;;;5047570;28;20036;-62
2023/03/20 12:26:23;;;;;;;1.08;0.60;;;15.80;55.30;;;;;;5048518;28;20048;-63
2023/03/20 12:28:59;;;;;;;3.20;0.70;;;15.90;55.80;;;;;;5039272;28;20024;-63
2023/03/20 12:31:52;;;;;;;1.02;0.70;;;16.00;55.30;;;;;;5038112;28;20482;-63
2023/03/20 12:34:45;;;;;;;0.70;0.50;;;16.20;54.00;;;;;;5035551;28;20117;-63
2023/03/20 12:37:12;;;;;;;0.50;0.50;;;16.30;54.60;;;;;;5020943;28;20505;-63
2023/03/20 12:39:51;;;;;;;0.50;0.50;;;16.50;54.80;;;;;;5044964;28;20113;-65
2023/03/20 12:42:35;;;;;;;0.60;0.60;;;16.60;54.60;;;;;;5033012;28;20501;-66
2023/03/20 12:45:08;;;;;;;1.20;0.60;;;16.80;54.60;;;;;;5035071;28;20115;-63
2023/03/20 12:47:50;;;;;;;0.60;0.60;;;17.00;54.10;;;;;;5049538;28;20033;-62
2023/03/20 12:50:29;;;;;;;2.10;0.70;;;17.10;53.40;;;;;;5035597;28;20030;-65
2023/03/20 12:53:21;;;;;;;6.43;0.60;;;17.10;52.30;;;;;;5038716;28;20029;-62
2023/03/20 12:55:59;;;;;;;1.35;0.80;;;17.10;52.40;;;;;;5038156;28;20038;-65
2023/03/20 12:58:46;;;;;;;0.60;0.60;;;17.00;52.40;;;;;;5039912;28;20041;-64
2023/03/20 13:01:30;;;;;;;2.42;1.20;;;16.90;52.70;;;;;;5037212;28;20033;-63
2023/03/20 13:04:15;;;;;;;;;;;16.80;52.60;;;;;;5057403;28;20085;-64
2023/03/20 13:06:54;;;;;;;1.10;0.88;;;16.80;52.00;;;;;;5060974;28;19916;-62
2023/03/20 13:09:57;;;;;;;0.82;0.75;;;16.70;50.80;;;;;;5057474;28;20032;-65
2023/03/20 13:12:36;;;;;;;0.60;0.60;;;16.60;52.00;;;;;;5057802;28;20021;-64